Time,TemperatureF,DewpointF,PressureIn,WindDirection,WindDirectionDegrees,WindSpeedMPH,WindSpeedGustMPH,Humidity,HourlyPrecipIn,Conditions,Clouds,dailyrainin,SoftwareType,DateUTC
2013-09-16 00:03:00,62.1,57.5,29.74,SSE,164,0.0,0.0,85,0.00,,---,0.00,VWS V14.01,2013-09-15 22:03:00,
2013-09-16 00:08:00,61.9,57.3,29.74,SSE,164,0.0,0.0,85,0.00,,---,0.00,VWS V14.01,2013-09-15 22:08:00,
2013-09-16 00:13:00,61.9,57.3,29.74,SSE,164,0.0,0.0,85,0.00,,---,0.00,VWS V14.01,2013-09-15 22:13:00,
2013-09-16 00:18:00,61.7,57.2,29.74,SSE,164,0.0,0.0,85,0.00,,---,0.00,VWS V14.01,2013-09-15 22:18:00,
2013-09-16 00:23:00,61.5,57.3,29.74,SSE,164,0.0,0.0,86,0.00,,---,0.00,VWS V14.01,2013-09-15 22:23:00,
2013-09-16 00:28:00,61.3,57.1,29.74,SSE,164,0.0,0.0,86,0.00,,---,0.00,VWS V14.01,2013-09-15 22:28:00,
2013-09-16 00:33:00,61.2,57.0,29.74,SSE,164,0.0,0.0,86,0.00,,---,0.00,VWS V14.01,2013-09-15 22:33:00,
2013-09-16 00:38:00,61.2,57.3,29.74,SSE,164,0.0,0.0,87,0.00,,---,0.00,VWS V14.01,2013-09-15 22:38:00,
2013-09-16 00:43:00,61.0,57.1,29.74,SSE,164,0.0,0.0,87,0.00,,---,0.00,VWS V14.01,2013-09-15 22:43:00,
2013-09-16 00:48:00,61.0,57.1,29.71,SSE,164,0.0,0.0,87,0.00,,---,0.00,VWS V14.01,2013-09-15 22:48:00,
2013-09-16 00:53:00,60.8,56.9,29.71,SSE,164,0.0,0.0,87,0.00,,---,0.00,VWS V14.01,2013-09-15 22:53:00,
2013-09-16 00:58:00,60.8,57.2,29.71,SSE,164,0.0,0.0,88,0.00,,---,0.00,VWS V14.01,2013-09-15 22:58:00,
2013-09-16 01:03:00,60.6,57.0,29.71,SSE,164,0.0,0.0,88,0.00,,---,0.00,VWS V14.01,2013-09-15 23:03:00,
2013-09-16 01:08:00,60.4,56.9,29.71,SSE,164,0.0,0.0,88,0.00,,---,0.00,VWS V14.01,2013-09-15 23:08:00,
2013-09-16 01:13:00,60.3,56.7,29.71,SSE,164,0.0,0.0,88,0.00,,---,0.00,VWS V14.01,2013-09-15 23:13:00,
2013-09-16 01:18:00,60.1,56.5,29.71,SSE,164,0.0,0.0,88,0.00,,---,0.00,VWS V14.01,2013-09-15 23:18:00,
2013-09-16 01:23:00,59.7,56.5,29.71,SSE,164,0.0,0.0,89,0.00,,---,0.00,VWS V14.01,2013-09-15 23:23:00,
2013-09-16 01:28:00,59.7,56.5,29.71,SSE,164,0.0,0.0,89,0.00,,---,0.00,VWS V14.01,2013-09-15 23:28:00,
2013-09-16 01:33:00,59.5,56.3,29.71,SSE,164,0.0,0.0,89,0.00,,---,0.00,VWS V14.01,2013-09-15 23:33:00,
2013-09-16 01:38:00,59.5,56.6,29.71,SSE,164,0.0,0.0,90,0.00,,---,0.00,VWS V14.01,2013-09-15 23:38:00,
2013-09-16 01:43:00,59.4,56.4,29.71,SSE,164,0.0,0.0,90,0.00,,---,0.00,VWS V14.01,2013-09-15 23:43:00,
2013-09-16 01:48:00,59.4,56.4,29.71,SSE,164,0.0,0.0,90,0.00,,---,0.00,VWS V14.01,2013-09-15 23:48:00,
2013-09-16 01:53:00,59.2,56.2,29.71,SSE,164,0.0,0.0,90,0.00,,---,0.00,VWS V14.01,2013-09-15 23:53:00,
2013-09-16 01:58:00,59.2,56.2,29.71,SSE,164,0.0,0.0,90,0.00,,---,0.00,VWS V14.01,2013-09-15 23:58:00,
2013-09-16 02:03:00,59.0,56.4,29.71,SSE,164,0.0,0.0,91,0.00,,---,0.00,VWS V14.01,2013-09-16 00:03:00,
2013-09-16 02:08:00,59.0,56.4,29.71,SSE,164,2.7,3.1,91,0.00,,---,0.00,VWS V14.01,2013-09-16 00:08:00,
2013-09-16 02:13:00,59.0,56.4,29.71,SSE,164,0.0,3.1,91,0.00,,---,0.00,VWS V14.01,2013-09-16 00:13:00,
2013-09-16 02:18:00,58.8,56.2,29.71,SSE,164,0.0,0.0,91,0.00,,---,0.00,VWS V14.01,2013-09-16 00:18:00,
2013-09-16 02:23:00,58.8,56.2,29.71,SSE,164,0.0,0.0,91,0.00,,---,0.00,VWS V14.01,2013-09-16 00:23:00,
2013-09-16 02:28:00,58.5,55.8,29.71,SSE,164,0.0,0.0,91,0.00,,---,0.00,VWS V14.01,2013-09-16 00:28:00,
2013-09-16 02:33:00,58.3,55.7,29.71,SSE,164,0.0,0.0,91,0.00,,---,0.00,VWS V14.01,2013-09-16 00:33:00,
2013-09-16 02:38:00,58.1,55.5,29.71,SSE,164,0.0,0.0,91,0.00,,---,0.00,VWS V14.01,2013-09-16 00:38:00,
2013-09-16 02:43:00,57.9,55.6,29.71,SSE,164,0.0,0.0,92,0.00,,---,0.00,VWS V14.01,2013-09-16 00:43:00,
2013-09-16 02:48:00,57.9,55.6,29.71,SSE,164,0.0,0.0,92,0.00,,---,0.00,VWS V14.01,2013-09-16 00:48:00,
2013-09-16 02:53:00,57.9,55.6,29.71,SSE,164,0.0,0.0,92,0.00,,---,0.00,VWS V14.01,2013-09-16 00:53:00,
2013-09-16 02:58:00,57.7,55.4,29.71,SSE,164,0.0,0.0,92,0.00,,---,0.00,VWS V14.01,2013-09-16 00:58:00,
2013-09-16 03:03:00,57.6,55.3,29.68,SSE,164,0.0,0.0,92,0.00,,---,0.00,VWS V14.01,2013-09-16 01:03:00,
2013-09-16 03:08:00,57.6,55.6,29.68,SSE,164,0.0,0.0,93,0.00,,---,0.00,VWS V14.01,2013-09-16 01:08:00,
2013-09-16 03:13:00,57.6,55.6,29.68,SSE,164,0.0,0.0,93,0.00,,---,0.00,VWS V14.01,2013-09-16 01:13:00,
2013-09-16 03:18:00,57.6,55.6,29.68,SSE,164,0.0,0.0,93,0.00,,---,0.00,VWS V14.01,2013-09-16 01:18:00,
2013-09-16 03:23:00,57.6,55.6,29.68,SSE,164,0.0,0.0,93,0.00,,---,0.00,VWS V14.01,2013-09-16 01:23:00,
2013-09-16 03:28:00,57.6,55.6,29.68,SSE,164,0.0,0.0,93,0.00,,---,0.00,VWS V14.01,2013-09-16 01:28:00,
2013-09-16 03:33:00,57.6,55.6,29.68,SSE,164,0.0,0.0,93,0.00,,---,0.00,VWS V14.01,2013-09-16 01:33:00,
2013-09-16 03:38:00,57.6,55.6,29.68,SSE,164,0.0,0.0,93,0.00,,---,0.00,VWS V14.01,2013-09-16 01:38:00,
2013-09-16 03:43:00,57.4,55.4,29.68,SSE,164,0.0,0.0,93,0.00,,---,0.00,VWS V14.01,2013-09-16 01:43:00,
2013-09-16 03:49:00,57.2,55.2,29.68,SSE,164,0.0,0.0,93,0.00,,---,0.00,VWS V14.01,2013-09-16 01:49:00,
2013-09-16 03:54:00,57.0,55.0,29.68,SSE,164,0.0,0.0,93,0.00,,---,0.00,VWS V14.01,2013-09-16 01:54:00,
2013-09-16 03:59:00,56.7,54.7,29.68,SSE,164,0.0,0.0,93,0.00,,---,0.00,VWS V14.01,2013-09-16 01:59:00,
2013-09-16 04:04:00,56.7,54.7,29.68,SSE,164,0.0,0.0,93,0.00,,---,0.00,VWS V14.01,2013-09-16 02:04:00,
2013-09-16 04:09:00,56.7,54.7,29.68,SSE,164,0.0,0.0,93,0.00,,---,0.00,VWS V14.01,2013-09-16 02:09:00,
2013-09-16 04:13:00,56.5,54.5,29.68,SSE,164,0.0,0.0,93,0.00,,---,0.00,VWS V14.01,2013-09-16 02:13:00,
2013-09-16 04:19:00,56.3,54.3,29.68,SSE,164,0.0,0.0,93,0.00,,---,0.00,VWS V14.01,2013-09-16 02:19:00,
2013-09-16 04:23:00,56.7,54.7,29.68,SSE,164,0.0,0.0,93,0.00,,---,0.00,VWS V14.01,2013-09-16 02:23:00,
2013-09-16 04:29:00,56.8,55.1,29.68,SSE,164,0.0,0.0,94,0.00,,---,0.00,VWS V14.01,2013-09-16 02:29:00,
2013-09-16 04:34:00,56.8,55.1,29.68,SSE,164,0.0,0.0,94,0.00,,---,0.00,VWS V14.01,2013-09-16 02:34:00,
2013-09-16 04:39:00,56.8,55.1,29.68,SSE,164,0.0,0.0,94,0.00,,---,0.00,VWS V14.01,2013-09-16 02:39:00,
2013-09-16 04:44:00,56.7,55.0,29.68,SSE,164,0.0,0.0,94,0.00,,---,0.00,VWS V14.01,2013-09-16 02:44:00,
2013-09-16 04:49:00,56.3,54.3,29.68,SSE,164,0.0,0.0,93,0.00,,---,0.00,VWS V14.01,2013-09-16 02:49:00,
2013-09-16 04:54:00,56.1,54.4,29.68,SSE,164,0.0,0.0,94,0.00,,---,0.00,VWS V14.01,2013-09-16 02:54:00,
2013-09-16 04:58:00,56.1,54.4,29.68,SSE,164,0.0,0.0,94,0.00,,---,0.00,VWS V14.01,2013-09-16 02:58:00,
2013-09-16 05:04:00,55.9,54.2,29.68,SSE,164,0.0,0.0,94,0.00,,---,0.00,VWS V14.01,2013-09-16 03:04:00,
2013-09-16 05:09:00,56.1,54.4,29.68,SSE,164,0.0,0.0,94,0.00,,---,0.00,VWS V14.01,2013-09-16 03:09:00,
2013-09-16 05:14:00,56.1,54.4,29.68,SSE,164,0.0,0.0,94,0.00,,---,0.00,VWS V14.01,2013-09-16 03:14:00,
2013-09-16 05:19:00,55.9,54.2,29.68,SSE,164,0.0,0.0,94,0.00,,---,0.00,VWS V14.01,2013-09-16 03:19:00,
2013-09-16 05:24:00,55.9,54.2,29.68,SSE,164,0.0,0.0,94,0.00,,---,0.00,VWS V14.01,2013-09-16 03:24:00,
2013-09-16 05:29:00,56.1,54.7,29.68,SSE,164,0.0,0.0,95,0.00,,---,0.00,VWS V14.01,2013-09-16 03:29:00,
2013-09-16 05:33:00,55.9,54.2,29.68,SSE,164,0.0,0.0,94,0.00,,---,0.00,VWS V14.01,2013-09-16 03:33:00,
2013-09-16 05:39:00,55.6,53.9,29.68,SSE,164,0.0,0.0,94,0.00,,---,0.00,VWS V14.01,2013-09-16 03:39:00,
2013-09-16 05:44:00,55.8,54.3,29.68,SSE,164,3.1,4.0,95,0.00,,---,0.00,VWS V14.01,2013-09-16 03:44:00,
2013-09-16 05:49:00,55.4,54.0,29.68,SSE,164,0.0,0.0,95,0.00,,---,0.00,VWS V14.01,2013-09-16 03:49:00,
2013-09-16 05:54:00,55.4,54.0,29.68,SSE,164,0.0,4.0,95,0.00,,---,0.00,VWS V14.01,2013-09-16 03:54:00,
2013-09-16 05:59:00,55.4,54.0,29.68,SSE,164,0.0,0.0,95,0.00,,---,0.00,VWS V14.01,2013-09-16 03:59:00,
2013-09-16 06:01:00,55.4,54.0,29.68,SSE,164,0.0,0.0,95,0.00,,---,0.00,VWS V14.01,2013-09-16 04:01:00,
2013-09-16 06:06:00,55.0,53.6,29.68,SSE,164,3.6,4.0,95,0.00,,---,0.00,VWS V14.01,2013-09-16 04:06:00,
2013-09-16 06:11:00,54.9,53.5,29.68,SSE,164,0.0,0.0,95,0.00,,---,0.00,VWS V14.01,2013-09-16 04:11:00,
2013-09-16 06:16:00,54.7,53.3,29.68,SSE,164,0.0,2.7,95,0.00,,---,0.00,VWS V14.01,2013-09-16 04:16:00,
2013-09-16 06:21:00,54.5,53.1,29.68,SSE,164,0.0,2.7,95,0.00,,---,0.00,VWS V14.01,2013-09-16 04:21:00,
2013-09-16 06:26:00,54.5,53.1,29.68,SSE,164,4.5,4.5,95,0.00,,---,0.00,VWS V14.01,2013-09-16 04:26:00,
2013-09-16 06:32:00,54.5,53.1,29.68,SSE,164,3.1,4.0,95,0.00,,---,0.00,VWS V14.01,2013-09-16 04:32:00,
2013-09-16 06:37:00,54.5,53.1,29.68,SSE,164,3.6,4.9,95,0.00,,---,0.00,VWS V14.01,2013-09-16 04:37:00,
2013-09-16 06:42:00,54.9,53.5,29.68,SSE,164,0.0,3.1,95,0.00,,---,0.00,VWS V14.01,2013-09-16 04:42:00,
2013-09-16 06:47:00,55.2,54.1,29.68,SSE,164,0.0,2.7,96,0.00,,---,0.00,VWS V14.01,2013-09-16 04:47:00,
2013-09-16 06:51:00,55.6,54.5,29.68,SSE,164,4.9,4.9,96,0.00,,---,0.00,VWS V14.01,2013-09-16 04:51:00,
2013-09-16 06:57:00,55.6,54.5,29.68,SSE,164,3.6,4.0,96,0.00,,---,0.00,VWS V14.01,2013-09-16 04:57:00,
2013-09-16 07:02:00,55.6,54.5,29.68,West,270,4.5,4.9,96,0.00,,---,0.00,VWS V14.01,2013-09-16 05:02:00,
2013-09-16 07:07:00,55.4,54.0,29.68,WNW,294,3.1,3.6,95,0.00,,---,0.00,VWS V14.01,2013-09-16 05:07:00,
2013-09-16 07:12:00,55.0,53.6,29.68,NW,304,3.6,4.9,95,0.00,,---,0.00,VWS V14.01,2013-09-16 05:12:00,
2013-09-16 07:16:00,55.2,53.8,29.68,NW,304,0.0,0.0,95,0.00,,---,0.00,VWS V14.01,2013-09-16 05:16:00,
2013-09-16 07:22:00,55.4,54.3,29.68,NW,304,0.0,0.0,96,0.00,,---,0.00,VWS V14.01,2013-09-16 05:22:00,
2013-09-16 07:26:00,55.6,54.5,29.68,NW,304,0.0,0.0,96,0.00,,---,0.00,VWS V14.01,2013-09-16 05:26:00,
2013-09-16 07:31:00,55.8,54.6,29.68,NW,304,0.0,0.0,96,0.00,,---,0.00,VWS V14.01,2013-09-16 05:31:00,
2013-09-16 07:37:00,55.9,54.8,29.68,NW,304,0.0,0.0,96,0.00,,---,0.00,VWS V14.01,2013-09-16 05:37:00,
2013-09-16 07:42:00,56.3,55.2,29.68,NW,304,0.0,0.0,96,0.00,,---,0.00,VWS V14.01,2013-09-16 05:42:00,
2013-09-16 07:46:00,56.5,55.4,29.68,NW,304,0.0,0.0,96,0.00,,---,0.00,VWS V14.01,2013-09-16 05:46:00,
2013-09-16 07:52:00,56.7,55.5,29.68,NW,304,0.0,0.0,96,0.00,,---,0.00,VWS V14.01,2013-09-16 05:52:00,
2013-09-16 07:57:00,57.0,55.9,29.68,NW,304,0.0,0.0,96,0.00,,---,0.00,VWS V14.01,2013-09-16 05:57:00,
2013-09-16 08:02:00,57.6,56.4,29.68,NW,304,0.0,0.0,96,0.00,,---,0.00,VWS V14.01,2013-09-16 06:02:00,
2013-09-16 08:07:00,57.7,56.6,29.68,NW,304,0.0,0.0,96,0.00,,---,0.00,VWS V14.01,2013-09-16 06:07:00,
2013-09-16 08:12:00,57.9,56.8,29.68,NW,304,0.0,0.0,96,0.00,,---,0.00,VWS V14.01,2013-09-16 06:12:00,
2013-09-16 08:17:00,58.3,57.2,29.68,WNW,303,3.6,4.0,96,0.00,,---,0.00,VWS V14.01,2013-09-16 06:17:00,
2013-09-16 08:22:00,59.2,58.3,29.68,WNW,292,4.5,4.9,97,0.00,,---,0.00,VWS V14.01,2013-09-16 06:22:00,
2013-09-16 08:27:00,60.1,59.2,29.68,WNW,290,0.0,2.7,97,0.00,,---,0.00,VWS V14.01,2013-09-16 06:27:00,
2013-09-16 08:32:00,60.3,59.1,29.68,WNW,290,3.1,3.6,96,0.00,,---,0.00,VWS V14.01,2013-09-16 06:32:00,
2013-09-16 08:37:00,60.6,59.5,29.68,WNW,286,0.0,3.6,96,0.00,,---,0.00,VWS V14.01,2013-09-16 06:37:00,
2013-09-16 08:42:00,60.4,59.3,29.68,WNW,287,2.7,3.1,96,0.00,,---,0.00,VWS V14.01,2013-09-16 06:42:00,
2013-09-16 08:47:00,60.8,59.7,29.68,WNW,287,3.1,4.5,96,0.00,,---,0.00,VWS V14.01,2013-09-16 06:47:00,
2013-09-16 08:52:00,61.3,60.2,29.68,WNW,287,0.0,3.1,96,0.00,,---,0.00,VWS V14.01,2013-09-16 06:52:00,
2013-09-16 08:57:00,62.6,61.5,29.68,WNW,287,0.0,0.0,96,0.00,,---,0.00,VWS V14.01,2013-09-16 06:57:00,
2013-09-16 09:02:00,62.6,61.5,29.68,NW,311,0.0,2.7,96,0.00,,---,0.00,VWS V14.01,2013-09-16 07:02:00,
2013-09-16 09:07:00,63.5,62.0,29.71,WNW,289,4.9,4.9,95,0.00,,---,0.00,VWS V14.01,2013-09-16 07:07:00,
2013-09-16 09:12:00,64.9,63.5,29.71,NW,308,5.8,6.9,95,0.00,,---,0.00,VWS V14.01,2013-09-16 07:12:00,
2013-09-16 09:17:00,65.7,63.6,29.71,WNW,285,4.0,4.5,93,0.00,,---,0.00,VWS V14.01,2013-09-16 07:17:00,
2013-09-16 09:22:00,66.4,64.0,29.68,WNW,299,4.0,5.4,92,0.00,,---,0.00,VWS V14.01,2013-09-16 07:22:00,
2013-09-16 09:27:00,66.7,63.1,29.68,NW,304,3.1,5.4,88,0.00,,---,0.00,VWS V14.01,2013-09-16 07:27:00,
2013-09-16 09:32:00,67.1,62.5,29.68,WNW,295,3.6,4.0,85,0.00,,---,0.00,VWS V14.01,2013-09-16 07:32:00,
2013-09-16 09:37:00,66.2,60.2,29.68,NNW,331,3.1,5.4,81,0.00,,---,0.00,VWS V14.01,2013-09-16 07:37:00,
2013-09-16 09:42:00,66.2,59.9,29.68,NNW,338,2.7,3.6,80,0.00,,---,0.00,VWS V14.01,2013-09-16 07:42:00,
2013-09-16 09:47:00,66.2,59.5,29.68,North,0,0.0,4.9,79,0.00,,---,0.00,VWS V14.01,2013-09-16 07:47:00,
2013-09-16 09:52:00,66.0,58.6,29.68,WNW,298,4.0,4.0,77,0.00,,---,0.00,VWS V14.01,2013-09-16 07:52:00,
2013-09-16 09:57:00,67.1,60.0,29.68,WNW,295,3.1,4.9,78,0.00,,---,0.00,VWS V14.01,2013-09-16 07:57:00,
2013-09-16 10:02:00,67.1,59.3,29.68,NW,305,2.7,3.6,76,0.00,,---,0.00,VWS V14.01,2013-09-16 08:02:00,
2013-09-16 10:07:00,67.8,60.0,29.68,NW,305,0.0,0.0,76,0.00,,---,0.00,VWS V14.01,2013-09-16 08:07:00,
2013-09-16 10:12:00,69.6,61.0,29.68,NW,318,4.0,4.5,74,0.00,,---,0.00,VWS V14.01,2013-09-16 08:12:00,
2013-09-16 10:17:00,69.1,59.3,29.68,NW,318,2.7,3.1,71,0.00,,---,0.00,VWS V14.01,2013-09-16 08:17:00,
2013-09-16 10:22:00,69.4,59.2,29.68,WNW,295,0.0,4.5,70,0.00,,---,0.00,VWS V14.01,2013-09-16 08:22:00,
2013-09-16 10:27:00,70.5,60.3,29.68,WNW,291,4.0,5.4,70,0.00,,---,0.00,VWS V14.01,2013-09-16 08:27:00,
2013-09-16 10:32:00,71.8,61.1,29.68,WNW,290,3.1,4.5,69,0.00,,---,0.00,VWS V14.01,2013-09-16 08:32:00,
2013-09-16 10:37:00,73.0,61.5,29.68,WNW,282,5.4,6.7,67,0.00,,---,0.00,VWS V14.01,2013-09-16 08:37:00,
2013-09-16 10:42:00,73.8,60.8,29.68,WNW,288,4.5,4.5,64,0.00,,---,0.00,VWS V14.01,2013-09-16 08:42:00,
2013-09-16 10:47:00,73.4,59.6,29.68,WNW,297,0.0,3.1,62,0.00,,---,0.00,VWS V14.01,2013-09-16 08:47:00,
2013-09-16 10:52:00,73.6,59.8,29.68,West,271,0.0,4.9,62,0.00,,---,0.00,VWS V14.01,2013-09-16 08:52:00,
2013-09-16 10:57:00,73.8,59.5,29.68,West,259,3.1,4.0,61,0.00,,---,0.00,VWS V14.01,2013-09-16 08:57:00,
2013-09-16 11:02:00,72.7,58.0,29.68,West,273,4.0,5.4,60,0.00,,---,0.00,VWS V14.01,2013-09-16 09:02:00,
2013-09-16 11:07:00,72.7,58.5,29.68,West,265,0.0,4.0,61,0.00,,---,0.00,VWS V14.01,2013-09-16 09:07:00,
2013-09-16 11:12:00,73.2,59.4,29.68,West,265,0.0,2.7,62,0.00,,---,0.00,VWS V14.01,2013-09-16 09:12:00,
2013-09-16 11:17:00,73.8,59.5,29.68,SSW,212,2.7,3.6,61,0.00,,---,0.00,VWS V14.01,2013-09-16 09:17:00,
2013-09-16 11:22:00,73.8,59.5,29.68,WNW,283,4.5,6.3,61,0.00,,---,0.00,VWS V14.01,2013-09-16 09:22:00,
2013-09-16 11:27:00,74.1,59.4,29.68,WNW,302,3.1,3.1,60,0.00,,---,0.00,VWS V14.01,2013-09-16 09:27:00,
2013-09-16 11:32:00,74.3,59.1,29.68,South,172,4.0,4.0,59,0.00,,---,0.00,VWS V14.01,2013-09-16 09:32:00,
2013-09-16 11:37:00,74.3,58.6,29.68,WNW,288,4.5,5.4,58,0.00,,---,0.00,VWS V14.01,2013-09-16 09:37:00,
2013-09-16 11:42:00,74.5,57.8,29.68,West,263,0.0,2.7,56,0.00,,---,0.00,VWS V14.01,2013-09-16 09:42:00,
2013-09-16 11:47:00,74.1,55.9,29.68,SSE,153,2.7,3.6,53,0.00,,---,0.00,VWS V14.01,2013-09-16 09:47:00,
2013-09-16 11:52:00,73.8,55.6,29.68,SSE,153,0.0,2.7,53,0.00,,---,0.00,VWS V14.01,2013-09-16 09:52:00,
2013-09-16 11:57:00,73.4,55.8,29.68,SSE,153,4.5,4.5,54,0.00,,---,0.00,VWS V14.01,2013-09-16 09:57:00,
2013-09-16 12:02:00,73.0,55.9,29.68,SSE,153,0.0,0.0,55,0.00,,---,0.00,VWS V14.01,2013-09-16 10:02:00,
2013-09-16 12:07:00,72.9,56.3,29.68,WNW,289,4.5,4.9,56,0.00,,---,0.00,VWS V14.01,2013-09-16 10:07:00,
2013-09-16 12:12:00,73.2,57.1,29.68,SSW,208,3.1,3.6,57,0.00,,---,0.00,VWS V14.01,2013-09-16 10:12:00,
2013-09-16 12:17:00,73.6,57.4,29.68,SSE,148,0.0,0.0,57,0.00,,---,0.00,VWS V14.01,2013-09-16 10:17:00,
2013-09-16 12:22:00,73.6,57.4,29.68,WNW,287,6.7,6.7,57,0.00,,---,0.00,VWS V14.01,2013-09-16 10:22:00,
2013-09-16 12:27:00,74.1,58.4,29.68,West,276,4.5,4.5,58,0.00,,---,0.00,VWS V14.01,2013-09-16 10:27:00,
2013-09-16 12:32:00,74.3,58.1,29.68,South,169,0.0,2.7,57,0.00,,---,0.00,VWS V14.01,2013-09-16 10:32:00,
2013-09-16 12:37:00,73.9,57.3,29.68,South,169,0.0,0.0,56,0.00,,---,0.00,VWS V14.01,2013-09-16 10:37:00,
2013-09-16 12:42:00,73.8,57.1,29.68,South,169,0.0,2.7,56,0.00,,---,0.00,VWS V14.01,2013-09-16 10:42:00,
2013-09-16 12:47:00,73.4,57.3,29.68,South,169,0.0,2.7,57,0.00,,---,0.00,VWS V14.01,2013-09-16 10:47:00,
2013-09-16 12:52:00,73.0,56.9,29.68,South,169,2.7,2.7,57,0.00,,---,0.00,VWS V14.01,2013-09-16 10:52:00,
2013-09-16 12:57:00,73.0,57.4,29.68,South,169,0.0,4.0,58,0.00,,---,0.00,VWS V14.01,2013-09-16 10:57:00,
2013-09-16 13:02:00,73.0,57.4,29.68,SE,142,2.7,4.0,58,0.00,,---,0.00,VWS V14.01,2013-09-16 11:02:00,
2013-09-16 13:07:00,73.2,57.6,29.68,SE,143,0.0,2.7,58,0.00,,---,0.00,VWS V14.01,2013-09-16 11:07:00,
2013-09-16 13:12:00,73.4,58.2,29.68,West,272,7.8,7.8,59,0.00,,---,0.00,VWS V14.01,2013-09-16 11:12:00,
2013-09-16 13:17:00,73.9,58.2,29.68,West,277,7.8,7.8,58,0.00,,---,0.00,VWS V14.01,2013-09-16 11:17:00,
2013-09-16 13:22:00,74.1,58.4,29.68,WNW,287,7.4,8.3,58,0.00,,---,0.00,VWS V14.01,2013-09-16 11:22:00,
2013-09-16 13:27:00,74.3,58.1,29.68,West,271,8.7,8.7,57,0.00,,---,0.00,VWS V14.01,2013-09-16 11:27:00,
2013-09-16 13:32:00,74.3,58.1,29.68,West,277,6.7,7.4,57,0.00,,---,0.00,VWS V14.01,2013-09-16 11:32:00,
2013-09-16 13:37:00,74.7,58.4,29.68,West,280,6.7,6.7,57,0.00,,---,0.00,VWS V14.01,2013-09-16 11:37:00,
2013-09-16 13:42:00,74.7,57.9,29.68,WNW,289,6.7,6.7,56,0.00,,---,0.00,VWS V14.01,2013-09-16 11:42:00,
2013-09-16 13:47:00,74.1,57.4,29.68,West,276,7.8,10.1,56,0.00,,---,0.00,VWS V14.01,2013-09-16 11:47:00,
2013-09-16 13:52:00,73.6,56.9,29.65,West,278,7.4,7.4,56,0.00,,---,0.00,VWS V14.01,2013-09-16 11:52:00,
2013-09-16 13:57:00,73.4,57.3,29.65,West,280,5.8,5.8,57,0.00,,---,0.00,VWS V14.01,2013-09-16 11:57:00,
2013-09-16 14:02:00,73.4,57.3,29.65,WNW,303,6.3,6.7,57,0.00,,---,0.00,VWS V14.01,2013-09-16 12:02:00,
2013-09-16 14:07:00,72.9,56.8,29.65,NW,315,4.0,4.0,57,0.00,,---,0.00,VWS V14.01,2013-09-16 12:07:00,
2013-09-16 14:12:00,73.2,57.6,29.65,West,281,0.0,4.0,58,0.00,,---,0.00,VWS V14.01,2013-09-16 12:12:00,
2013-09-16 14:17:00,73.8,57.6,29.65,WNW,296,0.0,5.8,57,0.00,,---,0.00,VWS V14.01,2013-09-16 12:17:00,
2013-09-16 14:22:00,73.9,57.8,29.65,West,270,4.0,5.8,57,0.00,,---,0.00,VWS V14.01,2013-09-16 12:22:00,
2013-09-16 14:27:00,73.4,56.8,29.65,West,268,0.0,2.7,56,0.00,,---,0.00,VWS V14.01,2013-09-16 12:27:00,
2013-09-16 14:32:00,73.4,56.8,29.65,SW,227,0.0,0.0,56,0.00,,---,0.00,VWS V14.01,2013-09-16 12:32:00,
2013-09-16 14:37:00,73.4,56.8,29.65,SSW,200,3.1,3.6,56,0.00,,---,0.00,VWS V14.01,2013-09-16 12:37:00,
2013-09-16 14:42:00,73.4,56.8,29.65,WNW,290,6.7,6.7,56,0.00,,---,0.00,VWS V14.01,2013-09-16 12:42:00,
2013-09-16 14:47:00,73.8,57.6,29.65,West,267,0.0,3.1,57,0.00,,---,0.00,VWS V14.01,2013-09-16 12:47:00,
2013-09-16 14:52:00,73.8,57.1,29.65,West,281,5.4,6.3,56,0.00,,---,0.00,VWS V14.01,2013-09-16 12:52:00,
2013-09-16 14:57:00,73.6,56.4,29.65,West,279,2.7,3.1,55,0.00,,---,0.00,VWS V14.01,2013-09-16 12:57:00,
2013-09-16 15:02:00,73.4,56.3,29.65,West,279,0.0,2.7,55,0.00,,---,0.00,VWS V14.01,2013-09-16 13:02:00,
2013-09-16 15:07:00,73.0,56.4,29.65,West,279,0.0,0.0,56,0.00,,---,0.00,VWS V14.01,2013-09-16 13:07:00,
2013-09-16 15:12:00,72.9,56.3,29.65,West,279,0.0,2.7,56,0.00,,---,0.00,VWS V14.01,2013-09-16 13:12:00,
2013-09-16 15:17:00,72.9,56.8,29.65,West,279,0.0,0.0,57,0.00,,---,0.00,VWS V14.01,2013-09-16 13:17:00,
2013-09-16 15:22:00,73.0,56.9,29.65,West,279,0.0,0.0,57,0.00,,---,0.00,VWS V14.01,2013-09-16 13:22:00,
2013-09-16 15:27:00,73.2,57.1,29.65,West,279,0.0,0.0,57,0.00,,---,0.00,VWS V14.01,2013-09-16 13:27:00,
2013-09-16 15:32:00,73.2,57.1,29.65,West,279,3.1,3.1,57,0.00,,---,0.00,VWS V14.01,2013-09-16 13:32:00,
2013-09-16 15:37:00,73.4,57.3,29.65,West,279,0.0,4.0,57,0.00,,---,0.00,VWS V14.01,2013-09-16 13:37:00,
2013-09-16 15:42:00,73.4,57.3,29.65,West,280,2.7,2.7,57,0.00,,---,0.00,VWS V14.01,2013-09-16 13:42:00,
2013-09-16 15:47:00,73.4,57.3,29.65,West,279,0.0,0.0,57,0.00,,---,0.00,VWS V14.01,2013-09-16 13:47:00,
2013-09-16 15:52:00,73.4,57.3,29.62,West,279,0.0,0.0,57,0.00,,---,0.00,VWS V14.01,2013-09-16 13:52:00,
2013-09-16 15:57:00,73.2,57.1,29.62,West,279,0.0,0.0,57,0.00,,---,0.00,VWS V14.01,2013-09-16 13:57:00,
2013-09-16 16:02:00,73.0,56.9,29.62,West,279,0.0,0.0,57,0.00,,---,0.00,VWS V14.01,2013-09-16 14:02:00,
2013-09-16 16:07:00,73.0,57.4,29.62,West,279,0.0,3.6,58,0.00,,---,0.00,VWS V14.01,2013-09-16 14:07:00,
2013-09-16 16:12:00,73.0,57.4,29.62,West,279,0.0,2.7,58,0.00,,---,0.00,VWS V14.01,2013-09-16 14:12:00,
2013-09-16 16:17:00,73.2,57.6,29.62,West,279,0.0,0.0,58,0.00,,---,0.00,VWS V14.01,2013-09-16 14:17:00,
2013-09-16 16:22:00,73.0,57.4,29.62,West,279,0.0,0.0,58,0.00,,---,0.00,VWS V14.01,2013-09-16 14:22:00,
2013-09-16 16:27:00,73.0,56.9,29.62,West,279,0.0,0.0,57,0.00,,---,0.00,VWS V14.01,2013-09-16 14:27:00,
2013-09-16 16:32:00,73.2,57.6,29.62,West,279,0.0,0.0,58,0.00,,---,0.00,VWS V14.01,2013-09-16 14:32:00,
2013-09-16 16:37:00,73.0,56.9,29.62,West,279,0.0,0.0,57,0.00,,---,0.00,VWS V14.01,2013-09-16 14:37:00,
2013-09-16 16:42:00,73.2,57.1,29.62,West,279,0.0,0.0,57,0.00,,---,0.00,VWS V14.01,2013-09-16 14:42:00,
2013-09-16 16:47:00,73.4,57.3,29.62,West,279,0.0,0.0,57,0.00,,---,0.00,VWS V14.01,2013-09-16 14:47:00,
2013-09-16 16:52:00,73.4,56.8,29.62,West,279,2.7,2.7,56,0.00,,---,0.00,VWS V14.01,2013-09-16 14:52:00,
2013-09-16 16:57:00,73.4,56.8,29.62,West,279,4.0,4.5,56,0.00,,---,0.00,VWS V14.01,2013-09-16 14:57:00,
2013-09-16 17:02:00,73.8,57.1,29.62,West,277,5.4,6.9,56,0.00,,---,0.00,VWS V14.01,2013-09-16 15:02:00,
2013-09-16 17:07:00,73.9,57.3,29.62,West,280,6.7,7.4,56,0.00,,---,0.00,VWS V14.01,2013-09-16 15:07:00,
2013-09-16 17:12:00,73.9,57.3,29.62,WNW,284,5.8,6.9,56,0.00,,---,0.00,VWS V14.01,2013-09-16 15:12:00,
2013-09-16 17:17:00,73.9,56.8,29.62,WNW,291,7.4,8.3,55,0.00,,---,0.00,VWS V14.01,2013-09-16 15:17:00,
2013-09-16 17:22:00,73.9,56.3,29.62,WNW,294,3.1,5.8,54,0.00,,---,0.00,VWS V14.01,2013-09-16 15:22:00,
2013-09-16 17:27:00,73.8,56.1,29.62,WSW,239,3.6,6.7,54,0.00,,---,0.00,VWS V14.01,2013-09-16 15:27:00,
2013-09-16 17:32:00,73.6,55.9,29.62,West,267,5.4,6.7,54,0.00,,---,0.00,VWS V14.01,2013-09-16 15:32:00,
2013-09-16 17:37:00,73.4,55.8,29.62,West,274,7.4,7.4,54,0.00,,---,0.00,VWS V14.01,2013-09-16 15:37:00,
2013-09-16 17:42:00,73.2,56.1,29.62,WNW,298,4.5,6.7,55,0.00,,---,0.00,VWS V14.01,2013-09-16 15:42:00,
2013-09-16 17:47:00,72.9,56.3,29.62,West,270,6.3,6.7,56,0.00,,---,0.00,VWS V14.01,2013-09-16 15:47:00,
2013-09-16 17:52:00,72.7,56.1,29.62,West,275,4.9,6.3,56,0.00,,---,0.00,VWS V14.01,2013-09-16 15:52:00,
2013-09-16 17:57:00,72.5,56.4,29.62,West,275,4.5,5.8,57,0.00,,---,0.00,VWS V14.01,2013-09-16 15:57:00,
2013-09-16 18:02:00,72.3,56.2,29.62,West,275,4.0,5.8,57,0.00,,---,0.00,VWS V14.01,2013-09-16 16:02:00,
2013-09-16 18:07:00,72.0,56.4,29.62,West,275,4.9,6.3,58,0.00,,---,0.00,VWS V14.01,2013-09-16 16:07:00,
2013-09-16 18:12:00,72.0,56.4,29.62,WNW,290,4.0,4.5,58,0.00,,---,0.00,VWS V14.01,2013-09-16 16:12:00,
2013-09-16 18:17:00,71.6,56.5,29.62,West,274,6.3,6.7,59,0.00,,---,0.00,VWS V14.01,2013-09-16 16:17:00,
2013-09-16 18:22:00,71.4,56.4,29.62,WNW,283,5.8,6.7,59,0.00,,---,0.00,VWS V14.01,2013-09-16 16:22:00,
2013-09-16 18:27:00,71.1,56.5,29.62,WNW,289,5.4,5.8,60,0.00,,---,0.00,VWS V14.01,2013-09-16 16:27:00,
2013-09-16 18:32:00,70.9,56.8,29.62,West,279,5.8,6.3,61,0.00,,---,0.00,VWS V14.01,2013-09-16 16:32:00,
2013-09-16 18:37:00,70.7,57.1,29.62,West,281,5.8,6.3,62,0.00,,---,0.00,VWS V14.01,2013-09-16 16:37:00,
2013-09-16 18:42:00,70.5,56.9,29.62,West,279,5.4,5.8,62,0.00,,---,0.00,VWS V14.01,2013-09-16 16:42:00,
2013-09-16 18:47:00,70.3,57.2,29.62,West,279,4.5,5.4,63,0.00,,---,0.00,VWS V14.01,2013-09-16 16:47:00,
2013-09-16 18:52:00,70.2,57.0,29.62,WNW,284,4.9,5.4,63,0.00,,---,0.00,VWS V14.01,2013-09-16 16:52:00,
2013-09-16 18:57:00,70.0,56.8,29.62,WNW,288,4.5,4.5,63,0.00,,---,0.00,VWS V14.01,2013-09-16 16:57:00,
2013-09-16 19:02:00,69.8,56.7,29.62,West,278,2.7,4.5,63,0.00,,---,0.00,VWS V14.01,2013-09-16 17:02:00,
2013-09-16 19:07:00,69.6,56.9,29.59,West,278,3.6,3.6,64,0.00,,---,0.00,VWS V14.01,2013-09-16 17:07:00,
2013-09-16 19:12:00,69.3,56.6,29.59,West,278,2.7,3.1,64,0.00,,---,0.00,VWS V14.01,2013-09-16 17:12:00,
2013-09-16 19:17:00,69.1,56.8,29.59,West,278,2.7,2.7,65,0.00,,---,0.00,VWS V14.01,2013-09-16 17:17:00,
2013-09-16 19:22:00,68.9,56.7,29.59,West,278,0.0,0.0,65,0.00,,---,0.00,VWS V14.01,2013-09-16 17:22:00,
2013-09-16 19:27:00,68.5,56.7,29.59,West,278,0.0,0.0,66,0.00,,---,0.00,VWS V14.01,2013-09-16 17:27:00,
2013-09-16 19:32:00,68.4,56.6,29.59,West,278,0.0,0.0,66,0.00,,---,0.00,VWS V14.01,2013-09-16 17:32:00,
2013-09-16 19:37:00,68.0,56.7,29.59,West,278,0.0,0.0,67,0.00,,---,0.00,VWS V14.01,2013-09-16 17:37:00,
2013-09-16 19:42:00,67.8,56.9,29.59,West,278,3.6,4.5,68,0.00,,---,0.00,VWS V14.01,2013-09-16 17:42:00,
2013-09-16 19:47:00,67.6,56.7,29.59,West,278,0.0,0.0,68,0.00,,---,0.00,VWS V14.01,2013-09-16 17:47:00,
2013-09-16 19:52:00,67.3,56.8,29.62,West,278,0.0,3.6,69,0.00,,---,0.00,VWS V14.01,2013-09-16 17:52:00,
2013-09-16 19:57:00,67.1,56.6,29.62,West,278,3.6,4.0,69,0.00,,---,0.00,VWS V14.01,2013-09-16 17:57:00,
2013-09-16 20:02:00,66.9,56.8,29.62,West,278,0.0,0.0,70,0.00,,---,0.00,VWS V14.01,2013-09-16 18:02:00,
2013-09-16 20:07:00,66.7,56.7,29.59,West,278,0.0,0.0,70,0.00,,---,0.00,VWS V14.01,2013-09-16 18:07:00,
2013-09-16 20:12:00,66.6,56.9,29.59,West,278,0.0,0.0,71,0.00,,---,0.00,VWS V14.01,2013-09-16 18:12:00,
2013-09-16 20:17:00,66.6,56.9,29.59,West,278,3.6,4.0,71,0.00,,---,0.00,VWS V14.01,2013-09-16 18:17:00,
2013-09-16 20:22:00,66.4,56.7,29.59,West,278,0.0,0.0,71,0.00,,---,0.00,VWS V14.01,2013-09-16 18:22:00,
2013-09-16 20:27:00,66.4,56.7,29.59,West,278,0.0,0.0,71,0.00,,---,0.00,VWS V14.01,2013-09-16 18:27:00,
2013-09-16 20:32:00,66.2,56.5,29.59,West,278,0.0,0.0,71,0.00,,---,0.00,VWS V14.01,2013-09-16 18:32:00,
2013-09-16 20:37:00,66.0,56.4,29.59,WNW,293,0.0,0.0,71,0.00,,---,0.00,VWS V14.01,2013-09-16 18:37:00,
2013-09-16 20:42:00,66.0,56.0,29.59,WNW,293,2.7,3.1,70,0.00,,---,0.00,VWS V14.01,2013-09-16 18:42:00,
2013-09-16 20:47:00,66.0,56.0,29.59,WNW,293,0.0,0.0,70,0.00,,---,0.00,VWS V14.01,2013-09-16 18:47:00,
2013-09-16 20:52:00,65.8,56.2,29.59,WNW,293,0.0,0.0,71,0.00,,---,0.00,VWS V14.01,2013-09-16 18:52:00,
2013-09-16 20:58:00,65.8,56.2,29.59,WNW,293,0.0,0.0,71,0.00,,---,0.00,VWS V14.01,2013-09-16 18:58:00,
2013-09-16 21:02:00,65.7,56.0,29.59,WNW,293,0.0,0.0,71,0.00,,---,0.00,VWS V14.01,2013-09-16 19:02:00,
2013-09-16 21:08:00,65.5,56.2,29.59,WNW,293,0.0,0.0,72,0.00,,---,0.00,VWS V14.01,2013-09-16 19:08:00,
2013-09-16 21:13:00,65.1,56.3,29.59,West,276,3.6,4.9,73,0.00,,---,0.00,VWS V14.01,2013-09-16 19:13:00,
2013-09-16 21:18:00,64.8,55.9,29.59,WNW,282,4.5,4.5,73,0.00,,---,0.00,VWS V14.01,2013-09-16 19:18:00,
2013-09-16 21:23:00,64.2,55.8,29.59,WNW,288,4.0,4.5,74,0.00,,---,0.00,VWS V14.01,2013-09-16 19:23:00,
2013-09-16 21:28:00,63.9,55.8,29.59,WNW,288,3.6,4.5,75,0.00,,---,0.00,VWS V14.01,2013-09-16 19:28:00,
2013-09-16 21:32:00,63.7,56.0,29.59,WNW,288,2.7,3.6,76,0.00,,---,0.00,VWS V14.01,2013-09-16 19:32:00,
2013-09-16 21:38:00,63.5,56.2,29.59,WNW,288,3.6,4.0,77,0.00,,---,0.00,VWS V14.01,2013-09-16 19:38:00,
2013-09-16 21:43:00,63.3,56.3,29.59,WNW,288,3.1,3.6,78,0.00,,---,0.00,VWS V14.01,2013-09-16 19:43:00,
2013-09-16 21:47:00,63.0,56.3,29.59,WNW,288,0.0,2.7,79,0.00,,---,0.00,VWS V14.01,2013-09-16 19:47:00,
2013-09-16 21:53:00,62.6,56.0,29.56,WNW,288,3.1,3.6,79,0.00,,---,0.00,VWS V14.01,2013-09-16 19:53:00,
2013-09-16 21:58:00,62.6,56.3,29.56,WNW,288,0.0,0.0,80,0.00,,---,0.00,VWS V14.01,2013-09-16 19:58:00,
2013-09-16 22:03:00,62.6,56.3,29.56,WNW,288,0.0,0.0,80,0.00,,---,0.00,VWS V14.01,2013-09-16 20:03:00,
2013-09-16 22:08:00,62.4,56.5,29.56,WNW,288,0.0,0.0,81,0.00,,---,0.00,VWS V14.01,2013-09-16 20:08:00,
2013-09-16 22:13:00,62.4,56.5,29.56,WNW,288,0.0,0.0,81,0.00,,---,0.00,VWS V14.01,2013-09-16 20:13:00,
2013-09-16 22:18:00,62.4,56.5,29.56,WNW,288,0.0,0.0,81,0.00,,---,0.00,VWS V14.01,2013-09-16 20:18:00,
2013-09-16 22:23:00,62.4,56.9,29.56,WNW,288,0.0,0.0,82,0.00,,---,0.00,VWS V14.01,2013-09-16 20:23:00,
2013-09-16 22:28:00,62.4,56.9,29.56,WNW,288,0.0,0.0,82,0.00,,---,0.00,VWS V14.01,2013-09-16 20:28:00,
2013-09-16 22:33:00,62.2,56.7,29.56,WNW,288,0.0,0.0,82,0.00,,---,0.00,VWS V14.01,2013-09-16 20:33:00,
2013-09-16 22:38:00,62.2,56.7,29.56,WNW,288,0.0,0.0,82,0.00,,---,0.00,VWS V14.01,2013-09-16 20:38:00,
2013-09-16 22:43:00,62.1,56.8,29.56,WNW,288,3.1,3.6,83,0.00,,---,0.00,VWS V14.01,2013-09-16 20:43:00,
2013-09-16 22:48:00,62.1,56.8,29.56,WNW,288,2.7,3.6,83,0.00,,---,0.00,VWS V14.01,2013-09-16 20:48:00,
2013-09-16 22:53:00,62.1,56.8,29.56,WNW,288,0.0,0.0,83,0.00,,---,0.00,VWS V14.01,2013-09-16 20:53:00,
2013-09-16 22:58:00,62.1,56.8,29.56,WNW,288,0.0,0.0,83,0.00,,---,0.00,VWS V14.01,2013-09-16 20:58:00,
2013-09-16 23:03:00,62.1,56.8,29.56,WNW,288,0.0,0.0,83,0.00,,---,0.00,VWS V14.01,2013-09-16 21:03:00,
2013-09-16 23:08:00,62.1,56.8,29.56,WNW,288,0.0,0.0,83,0.00,,---,0.00,VWS V14.01,2013-09-16 21:08:00,
2013-09-16 23:13:00,62.1,56.8,29.56,WNW,288,0.0,0.0,83,0.00,,---,0.00,VWS V14.01,2013-09-16 21:13:00,
2013-09-16 23:17:00,61.9,56.7,29.56,WNW,288,0.0,0.0,83,0.00,,---,0.00,VWS V14.01,2013-09-16 21:17:00,
2013-09-16 23:23:00,61.9,56.7,29.53,WNW,288,0.0,0.0,83,0.00,,---,0.00,VWS V14.01,2013-09-16 21:23:00,
2013-09-16 23:27:00,61.9,57.0,29.53,WNW,288,0.0,0.0,84,0.00,,---,0.00,VWS V14.01,2013-09-16 21:27:00,
2013-09-16 23:33:00,61.7,56.8,29.53,WNW,288,0.0,0.0,84,0.00,,---,0.00,VWS V14.01,2013-09-16 21:33:00,
2013-09-16 23:38:00,61.5,56.7,29.53,WNW,288,0.0,0.0,84,0.00,,---,0.00,VWS V14.01,2013-09-16 21:38:00,
2013-09-16 23:43:00,61.3,56.5,29.53,WNW,288,0.0,0.0,84,0.00,,---,0.00,VWS V14.01,2013-09-16 21:43:00,
2013-09-16 23:48:00,61.3,56.5,29.53,WNW,288,0.0,0.0,84,0.00,,---,0.00,VWS V14.01,2013-09-16 21:48:00,
2013-09-16 23:53:00,61.2,56.3,29.53,WNW,288,0.0,0.0,84,0.00,,---,0.00,VWS V14.01,2013-09-16 21:53:00,
2013-09-16 23:58:00,61.2,56.6,29.53,WNW,288,0.0,0.0,85,0.00,,---,0.00,VWS V14.01,2013-09-16 21:58:00,